Time;durP1;ratioP1;P1;durP2;ratioP2;P2;SDS_P1;SDS_P2;PMS_P1;PMS_P2;Temp;Humidity;BMP_temperature;BMP_pressure;BME280_temperature;BME280_humidity;BME280_pressure;Samples;Min_cycle;Max_cycle;Signal;HPM_P1;HPM_P2
2022/05/04 00:02:16;;;;;;;14.30;12.40;;;;;;;10.86;73.86;96652.95;107574;1268;48692;-79
2022/05/04 00:04:46;;;;;;;12.90;11.60;;;;;;;10.85;73.85;96648.41;107573;1268;45064;-80
2022/05/04 00:07:17;;;;;;;11.40;9.70;;;;;;;10.85;73.63;96648.94;107607;1267;47709;-79
2022/05/04 00:09:48;;;;;;;12.80;10.80;;;;;;;10.89;73.32;96649.64;107574;1268;47498;-79
2022/05/04 00:12:19;;;;;;;10.00;9.00;;;;;;;10.84;72.97;96655.09;107598;1268;43410;-80
2022/05/04 00:14:50;;;;;;;9.70;7.50;;;;;;;10.61;72.79;96652.89;107607;1268;33170;-79
2022/05/04 00:17:21;;;;;;;9.60;8.60;;;;;;;10.43;73.08;96652.05;107564;1268;41572;-79
2022/05/04 00:19:52;;;;;;;12.00;10.60;;;;;;;10.34;73.42;96655.83;107572;1268;35949;-80
2022/05/04 00:22:26;;;;;;;12.10;10.80;;;;;;;10.31;74.21;96653.95;107587;1268;41462;-80
2022/05/04 00:24:56;;;;;;;14.70;13.20;;;;;;;10.32;74.67;96654.63;107432;1268;52697;-79
2022/05/04 00:27:25;;;;;;;;;;;;;;;10.35;74.82;96654.55;107629;1267;31476;-80
2022/05/04 00:29:56;;;;;;;15.70;13.70;;;;;;;10.34;75.19;96657.74;107554;1270;39623;-80
2022/05/04 00:32:27;;;;;;;13.50;12.10;;;;;;;10.40;75.50;96660.02;107551;1268;40062;-79
2022/05/04 00:34:58;;;;;;;14.00;12.50;;;;;;;10.43;74.91;96659.02;107507;1270;41612;-79
2022/05/04 00:37:29;;;;;;;14.00;12.60;;;;;;;10.46;75.12;96659.37;107550;1268;32663;-80
2022/05/04 00:40:00;;;;;;;11.80;10.60;;;;;;;10.44;74.67;96665.80;107511;1268;42241;-80
2022/05/04 00:42:30;;;;;;;14.70;12.50;;;;;;;10.44;74.73;96662.19;107508;1268;72271;-79
2022/05/04 00:45:01;;;;;;;12.00;10.70;;;;;;;10.42;74.74;96667.60;107565;1268;42692;-79
2022/05/04 00:47:32;;;;;;;10.90;9.80;;;;;;;10.38;74.47;96667.03;107502;1269;40704;-79
2022/05/04 00:50:04;;;;;;;12.30;11.00;;;;;;;10.37;74.30;96667.99;107579;1268;43484;-79
2022/05/04 00:52:38;;;;;;;14.10;12.60;;;;;;;10.37;74.92;96669.64;107552;1268;45092;-80
2022/05/04 00:55:12;;;;;;;14.00;12.60;;;;;;;10.36;75.26;96672.25;107704;1266;44706;-79
2022/05/04 01:00:32;;;;;;;16.70;12.10;;;;;;;10.38;75.96;96676.20;107632;1268;34299;-80
2022/05/04 01:03:03;;;;;;;14.40;12.80;;;;;;;10.44;76.05;96681.70;107596;1268;42885;-79
2022/05/04 01:05:33;;;;;;;13.40;12.00;;;;;;;10.48;75.76;96681.77;107592;1268;40824;-79
2022/05/04 01:08:04;;;;;;;14.80;13.30;;;;;;;10.47;75.56;96685.75;107644;1268;36148;-79
2022/05/04 01:10:38;;;;;;;13.10;11.80;;;;;;;10.45;75.73;96684.23;107615;1268;46091;-79
2022/05/04 01:13:08;;;;;;;16.30;14.60;;;;;;;10.38;76.36;96686.08;107598;1268;38423;-79
2022/05/04 01:15:39;;;;;;;16.90;15.30;;;;;;;10.32;76.53;96680.98;107562;1268;38536;-79
2022/05/04 01:18:10;;;;;;;16.40;14.90;;;;;;;10.29;76.89;96680.30;107507;1270;44971;-80
2022/05/04 01:20:41;;;;;;;15.80;14.20;;;;;;;10.20;77.36;96676.83;107505;1270;42654;-79
2022/05/04 01:23:11;;;;;;;15.10;13.60;;;;;;;10.11;77.57;96678.48;107676;1268;35200;-79
2022/05/04 01:25:42;;;;;;;14.70;13.20;;;;;;;10.09;77.44;96681.85;107584;1270;44235;-79
2022/05/04 01:28:13;;;;;;;12.90;11.70;;;;;;;10.11;77.88;96677.81;107640;1270;44142;-79
2022/05/04 01:30:44;;;;;;;13.70;12.30;;;;;;;10.17;77.82;96677.36;107593;1270;40872;-79
2022/05/04 01:33:15;;;;;;;12.70;11.50;;;;;;;10.22;77.97;96682.92;107699;1267;30102;-79
2022/05/04 01:35:45;;;;;;;13.30;11.90;;;;;;;10.26;78.18;96680.67;107565;1268;32549;-79
2022/05/04 01:38:16;;;;;;;13.30;11.90;;;;;;;10.30;78.73;96678.49;107596;1268;41795;-79
2022/05/04 01:40:47;;;;;;;13.10;11.80;;;;;;;10.38;79.10;96679.13;107654;1267;32782;-79
2022/05/04 01:43:18;;;;;;;13.50;12.20;;;;;;;10.49;78.91;96678.31;107592;1268;42533;-79
2022/05/04 01:45:49;;;;;;;13.30;12.00;;;;;;;10.56;78.66;96682.40;107557;1268;29927;-79
2022/05/04 01:48:20;;;;;;;13.30;11.90;;;;;;;10.57;78.42;96685.22;107576;1268;41434;-80
2022/05/04 01:50:50;;;;;;;13.40;12.10;;;;;;;10.55;78.12;96683.63;107540;1270;42804;-80
2022/05/04 01:53:21;;;;;;;14.40;12.80;;;;;;;10.52;77.67;96684.17;107607;1268;40049;-80
2022/05/04 01:55:52;;;;;;;13.20;12.00;;;;;;;10.48;77.57;96681.45;107463;1270;40232;-80
2022/05/04 01:58:23;;;;;;;14.00;12.40;;;;;;;10.45;77.53;96682.59;107541;1270;35909;-80
2022/05/04 02:00:54;;;;;;;13.00;11.60;;;;;;;10.42;77.51;96685.52;107474;1270;42477;-80
2022/05/04 02:03:24;;;;;;;14.20;12.70;;;;;;;10.41;77.82;96688.55;107559;1268;40941;-80
2022/05/04 02:05:57;;;;;;;13.90;12.50;;;;;;;10.42;77.65;96687.11;107612;1267;43276;-79
2022/05/04 02:08:28;;;;;;;13.20;11.90;;;;;;;10.43;77.70;96689.77;107610;1267;33716;-79
2022/05/04 02:10:59;;;;;;;13.90;12.50;;;;;;;10.42;77.83;96686.00;107594;1267;45612;-79
2022/05/04 02:13:30;;;;;;;14.70;13.20;;;;;;;10.43;77.90;96688.38;107636;1267;39397;-80
2022/05/04 02:16:00;;;;;;;14.40;12.90;;;;;;;10.41;78.03;96690.23;107585;1267;36844;-79
2022/05/04 02:18:31;;;;;;;14.40;12.80;;;;;;;10.39;78.53;96682.98;107554;1267;46643;-79
2022/05/04 02:21:02;;;;;;;13.90;12.50;;;;;;;10.35;78.68;96688.26;107577;1267;41232;-80
2022/05/04 02:23:33;;;;;;;14.60;13.10;;;;;;;10.35;78.44;96688.00;107646;1267;44023;-79
2022/05/04 02:26:04;;;;;;;14.80;13.40;;;;;;;10.34;78.78;96685.25;107641;1267;37665;-80
2022/05/04 02:28:35;;;;;;;15.30;13.80;;;;;;;10.33;78.91;96686.64;107638;1267;33538;-79
2022/05/04 02:31:06;;;;;;;14.90;13.40;;;;;;;10.32;79.06;96686.74;107644;1270;35953;-79
2022/05/04 02:33:37;;;;;;;13.90;12.60;;;;;;;10.34;79.57;96689.12;107632;1267;45433;-80
2022/05/04 02:38:56;;;;;;;15.30;13.70;;;;;;;10.41;79.99;96690.29;107577;1270;33640;-79
2022/05/04 02:41:27;;;;;;;13.80;12.40;;;;;;;10.44;80.09;96692.30;107652;1267;33584;-79
2022/05/04 02:43:58;;;;;;;14.70;13.20;;;;;;;10.45;79.89;96693.92;107652;1267;39778;-79
2022/05/04 02:46:31;;;;;;;15.50;14.00;;;;;;;10.44;79.49;96694.63;107577;1267;47597;-79
2022/05/04 02:49:01;;;;;;;16.40;14.70;;;;;;;10.44;79.46;96694.26;107642;1267;42800;-80
2022/05/04 02:51:32;;;;;;;15.80;14.30;;;;;;;10.44;79.47;96691.39;107590;1267;38590;-79
2022/05/04 02:54:03;;;;;;;15.50;13.90;;;;;;;10.42;79.24;96685.31;107603;1267;40735;-80
2022/05/04 02:56:34;;;;;;;16.70;13.40;;;;;;;10.40;79.66;96682.75;107606;1267;32794;-79
2022/05/04 02:59:05;;;;;;;15.70;14.20;;;;;;;10.39;79.38;96683.45;107617;1267;40839;-79
2022/05/04 03:04:26;;;;;;;14.60;13.20;;;;;;;10.38;78.93;96683.77;107622;1267;40729;-79
2022/05/04 03:06:56;;;;;;;14.40;13.00;;;;;;;10.37;78.73;96681.94;107638;1267;38295;-79
2022/05/04 03:09:27;;;;;;;14.60;13.20;;;;;;;10.38;78.62;96682.73;107644;1267;33229;-80
2022/05/04 03:11:59;;;;;;;15.80;13.80;;;;;;;10.38;78.60;96688.02;107561;1267;40771;-79
2022/05/04 03:14:31;;;;;;;14.30;12.90;;;;;;;10.40;78.70;96695.42;107574;1267;36302;-80
2022/05/04 03:17:02;;;;;;;13.80;12.40;;;;;;;10.40;78.88;96700.25;107661;1267;39046;-80
2022/05/04 03:19:33;;;;;;;14.20;12.80;;;;;;;10.43;79.05;96708.84;107631;1267;41095;-80
2022/05/04 03:22:04;;;;;;;12.40;11.20;;;;;;;10.44;79.00;96717.05;107596;1267;35034;-79
2022/05/04 03:24:35;;;;;;;13.60;12.20;;;;;;;10.46;78.89;96721.48;107593;1266;44845;-79
2022/05/04 03:27:07;;;;;;;12.80;11.40;;;;;;;10.51;78.62;96729.77;107565;1268;42154;-80
2022/05/04 03:29:38;;;;;;;14.50;13.00;;;;;;;10.51;78.47;96735.02;107576;1268;41735;-79
2022/05/04 03:32:10;;;;;;;14.10;12.70;;;;;;;10.50;78.32;96738.26;107536;1269;41620;-80
2022/05/04 03:34:41;;;;;;;14.70;13.10;;;;;;;10.48;78.21;96733.19;107667;1267;33426;-80
2022/05/04 03:37:12;;;;;;;15.70;13.90;;;;;;;10.43;78.26;96736.98;107615;1267;34006;-79
2022/05/04 03:39:43;;;;;;;15.20;13.70;;;;;;;10.36;78.27;96735.90;107644;1267;40220;-80
2022/05/04 03:42:14;;;;;;;15.50;13.80;;;;;;;10.28;78.29;96736.69;107674;1267;30952;-80
2022/05/04 03:44:46;;;;;;;16.20;13.80;;;;;;;10.25;78.34;96739.39;107631;1268;40159;-80
2022/05/04 03:47:17;;;;;;;15.10;13.60;;;;;;;10.24;78.35;96743.75;107572;1267;38299;-79
2022/05/04 03:49:47;;;;;;;15.90;14.40;;;;;;;10.26;78.22;96744.42;107525;1270;41221;-79
2022/05/04 03:52:18;;;;;;;15.40;13.80;;;;;;;10.27;78.22;96749.20;107586;1267;41822;-79
2022/05/04 03:54:50;;;;;;;15.70;13.60;;;;;;;10.26;78.27;96746.02;107578;1267;44930;-79
2022/05/04 03:57:21;;;;;;;15.20;13.80;;;;;;;10.29;78.30;96748.03;107567;1267;49256;-79
2022/05/04 03:59:51;;;;;;;13.40;12.10;;;;;;;10.34;78.14;96755.10;107589;1267;47179;-79
2022/05/04 04:02:23;;;;;;;15.20;13.20;;;;;;;10.31;77.95;96755.28;107610;1266;40886;-79
2022/05/04 04:04:53;;;;;;;15.40;13.80;;;;;;;10.30;78.01;96756.88;107616;1267;47210;-80
2022/05/04 04:07:24;;;;;;;15.10;13.50;;;;;;;10.27;78.02;96761.54;107589;1267;38502;-80
2022/05/04 04:09:55;;;;;;;16.30;14.60;;;;;;;10.28;78.00;96763.18;107555;1267;41668;-80
2022/05/04 04:12:26;;;;;;;16.70;15.00;;;;;;;10.24;78.25;96765.31;107635;1267;39188;-80
2022/05/04 04:14:57;;;;;;;16.60;14.90;;;;;;;10.08;78.64;96766.89;107618;1267;45055;-80
2022/05/04 04:17:29;;;;;;;16.00;14.40;;;;;;;10.01;78.67;96768.36;107594;1267;43962;-80
2022/05/04 04:22:49;;;;;;;16.50;14.80;;;;;;;10.03;78.82;96773.79;107571;1267;32558;-80
2022/05/04 04:25:20;;;;;;;16.00;14.40;;;;;;;10.17;78.78;96776.83;107791;1267;32655;-79
2022/05/04 04:27:51;;;;;;;17.10;15.10;;;;;;;10.23;78.62;96777.94;107580;1267;44754;-80
2022/05/04 04:30:23;;;;;;;17.00;15.20;;;;;;;10.15;78.47;96781.91;107590;1267;47370;-79
2022/05/04 04:32:53;;;;;;;17.20;15.50;;;;;;;10.15;78.56;96784.31;107619;1267;37370;-80
2022/05/04 04:35:24;;;;;;;17.00;15.30;;;;;;;10.17;78.70;96787.21;107566;1266;36280;-80
2022/05/04 04:37:55;;;;;;;16.20;14.60;;;;;;;10.40;78.82;96791.64;107559;1267;55772;-80
2022/05/04 04:40:26;;;;;;;14.80;13.40;;;;;;;10.91;78.89;96789.61;107548;1267;45338;-80
2022/05/04 04:42:57;;;;;;;14.70;13.30;;;;;;;11.56;78.11;96788.35;107651;1267;35378;-80
2022/05/04 04:45:28;;;;;;;15.90;14.30;;;;;;;11.63;76.56;96783.04;107521;1267;44239;-80
2022/05/04 04:47:59;;;;;;;14.30;12.90;;;;;;;12.53;77.87;96787.94;107507;1270;41473;-80
2022/05/04 04:50:30;;;;;;;13.30;12.00;;;;;;;13.79;76.56;96783.16;107590;1267;36058;-80
2022/05/04 04:53:01;;;;;;;13.20;11.80;;;;;;;14.70;73.81;96779.10;107619;1267;45162;-80
2022/05/04 04:55:32;;;;;;;12.30;11.00;;;;;;;15.66;72.32;96782.52;107586;1267;46506;-80
2022/05/04 04:58:03;;;;;;;12.40;11.20;;;;;;;16.78;70.91;96789.57;107531;1267;40554;-80
2022/05/04 05:00:34;;;;;;;11.20;10.10;;;;;;;17.79;68.58;96789.02;107604;1267;39421;-80
2022/05/04 05:03:07;;;;;;;11.30;10.20;;;;;;;18.60;65.05;96780.65;107613;1269;59920;-80
2022/05/04 05:05:42;;;;;;;11.30;10.20;;;;;;;18.61;62.00;96777.84;107624;1267;41595;-80
2022/05/04 05:08:14;;;;;;;13.10;10.40;;;;;;;18.98;61.11;96779.73;107729;1267;30904;-80
2022/05/04 05:10:45;;;;;;;11.50;10.40;;;;;;;19.22;59.56;96779.98;107655;1267;34335;-80
2022/05/04 05:13:16;;;;;;;11.20;10.10;;;;;;;18.74;58.29;96779.05;107659;1267;46045;-80
2022/05/04 05:18:35;;;;;;;15.70;11.30;;;;;;;16.43;59.07;96778.16;107577;1267;33617;-80
2022/05/04 05:21:07;;;;;;;12.90;10.70;;;;;;;17.18;59.95;96775.61;107580;1267;43844;-81
2022/05/04 05:23:38;;;;;;;11.90;10.50;;;;;;;18.06;59.13;96772.45;107498;1267;47644;-80
2022/05/04 05:26:09;;;;;;;11.40;10.30;;;;;;;18.59;57.48;96766.89;107601;1267;33479;-81
2022/05/04 05:28:40;;;;;;;12.30;11.10;;;;;;;18.46;57.77;96771.40;107574;1267;45863;-80
2022/05/04 05:31:11;;;;;;;12.20;11.00;;;;;;;18.76;57.63;96772.96;107619;1267;48395;-80
2022/05/04 05:33:45;;;;;;;13.00;11.50;;;;;;;19.21;57.76;96772.32;107639;1267;43686;-81
2022/05/04 05:36:16;;;;;;;12.30;11.10;;;;;;;20.02;54.79;96770.66;107593;1267;41780;-77
2022/05/04 05:38:47;;;;;;;13.60;11.60;;;;;;;19.76;54.62;96776.48;107501;1270;44763;-80
2022/05/04 05:41:18;;;;;;;12.60;11.40;;;;;;;19.87;54.72;96781.41;107622;1267;45008;-80
2022/05/04 05:43:49;;;;;;;13.20;11.40;;;;;;;19.74;54.41;96785.18;107589;1267;43292;-80
2022/05/04 05:46:19;;;;;;;13.30;12.00;;;;;;;19.52;54.02;96784.73;107540;1270;36152;-80
2022/05/04 05:48:50;;;;;;;13.40;12.00;;;;;;;19.19;54.03;96787.52;107618;1267;31545;-80
2022/05/04 05:51:22;;;;;;;12.50;11.30;;;;;;;18.83;54.18;96789.73;107510;1270;36722;-80
2022/05/04 05:53:53;;;;;;;11.90;10.70;;;;;;;18.70;54.49;96790.15;107535;1267;42752;-81
2022/05/04 05:56:29;;;;;;;13.10;11.80;;;;;;;18.45;54.39;96791.80;107588;1267;51968;-80
2022/05/04 05:59:04;;;;;;;12.20;11.10;;;;;;;18.65;54.32;96793.55;107639;1267;32471;-80
2022/05/04 06:01:36;;;;;;;13.10;11.80;;;;;;;18.60;53.61;96790.82;107487;1268;43804;-81
2022/05/04 06:04:08;;;;;;;12.30;11.00;;;;;;;18.48;53.57;96789.30;107587;1267;32980;-81
2022/05/04 06:06:39;;;;;;;12.50;11.20;;;;;;;18.31;53.93;96797.61;107529;1267;47364;-80
2022/05/04 06:09:10;;;;;;;12.10;10.90;;;;;;;18.17;54.00;96804.23;107612;1267;37438;-81
2022/05/04 06:11:41;;;;;;;12.50;11.30;;;;;;;18.25;54.09;96804.66;107525;1270;40267;-81
2022/05/04 06:14:12;;;;;;;13.50;12.10;;;;;;;18.04;54.00;96806.02;107582;1268;50225;-81
2022/05/04 06:16:43;;;;;;;11.40;10.20;;;;;;;18.85;55.07;96798.83;107664;1267;50306;-81
2022/05/04 06:19:14;;;;;;;12.20;10.20;;;;;;;20.14;53.52;96800.58;107638;1267;41230;-81
2022/05/04 06:21:44;;;;;;;11.70;10.50;;;;;;;20.73;52.46;96801.70;107721;1267;33836;-81
2022/05/04 06:24:15;;;;;;;11.10;10.00;;;;;;;22.27;51.55;96797.66;107639;1267;43150;-81
2022/05/04 06:26:46;;;;;;;9.90;8.90;;;;;;;23.83;49.72;96797.32;107476;1270;64745;-79
2022/05/04 06:29:17;;;;;;;10.00;9.00;;;;;;;25.28;46.39;96793.17;107621;1267;38824;-81
2022/05/04 06:34:42;;;;;;;8.60;7.70;;;;;;;27.60;43.98;96791.98;107456;1268;31514;-82
2022/05/04 06:37:13;;;;;;;7.60;6.90;;;;;;;28.77;42.15;96792.13;107643;1267;42731;-82
2022/05/04 06:39:44;;;;;;;8.40;7.20;;;;;;;29.74;40.18;96797.29;107668;1267;31001;-81
2022/05/04 06:42:16;;;;;;;9.20;6.80;;;;;;;30.00;37.75;96802.52;107676;1267;33031;-82
2022/05/04 06:44:47;;;;;;;7.50;6.50;;;;;;;30.29;37.96;96808.59;107640;1267;32951;-81
2022/05/04 06:47:18;;;;;;;7.90;6.80;;;;;;;30.40;34.99;96808.20;107566;1267;44931;-82
2022/05/04 06:49:49;;;;;;;6.60;6.00;;;;;;;30.45;35.47;96807.77;107606;1267;43779;-82
2022/05/04 06:52:20;;;;;;;8.00;6.20;;;;;;;30.48;33.62;96803.36;107606;1267;37562;-82
2022/05/04 06:54:51;;;;;;;10.10;7.10;;;;;;;30.19;34.01;96801.39;107639;1267;34251;-81
2022/05/04 06:57:22;;;;;;;9.40;8.50;;;;;;;28.69;33.25;96797.71;107478;1270;46272;-79
2022/05/04 06:59:54;;;;;;;8.60;7.50;;;;;;;26.21;33.29;96801.71;107637;1267;30772;-81
2022/05/04 07:02:25;;;;;;;9.10;8.00;;;;;;;23.73;35.33;96802.67;107644;1267;34082;-81
2022/05/04 07:04:56;;;;;;;9.00;8.20;;;;;;;21.74;38.06;96807.95;107599;1267;42206;-81
2022/05/04 07:07:27;;;;;;;9.60;8.20;;;;;;;20.59;39.71;96807.42;107625;1267;37770;-82
2022/05/04 07:09:59;;;;;;;10.00;8.40;;;;;;;20.08;41.91;96804.86;107644;1267;35891;-81
2022/05/04 07:12:30;;;;;;;11.00;9.10;;;;;;;20.73;42.79;96804.71;107563;1267;43347;-82
2022/05/04 07:15:01;;;;;;;9.70;8.70;;;;;;;21.84;41.15;96811.32;107566;1267;36172;-82
2022/05/04 07:17:32;;;;;;;9.40;8.40;;;;;;;21.51;40.44;96810.14;107537;1270;44784;-82
2022/05/04 07:20:04;;;;;;;9.20;8.20;;;;;;;22.76;42.52;96814.17;107582;1267;39877;-82
2022/05/04 07:22:35;;;;;;;8.60;7.70;;;;;;;23.96;40.78;96811.05;107539;1270;38238;-82
2022/05/04 07:25:08;;;;;;;9.50;8.40;;;;;;;23.88;39.95;96814.85;107574;1267;48785;-82
2022/05/04 07:27:39;;;;;;;11.90;8.20;;;;;;;24.47;40.17;96811.35;107663;1267;51350;-82
2022/05/04 07:30:14;;;;;;;9.30;8.40;;;;;;;25.52;38.88;96813.32;107589;1267;31046;-82
2022/05/04 07:32:46;;;;;;;9.90;8.60;;;;;;;25.55;38.01;96809.94;107722;1267;33823;-82
2022/05/04 07:35:18;;;;;;;8.30;7.50;;;;;;;26.03;38.75;96810.81;107520;1267;42395;-82
2022/05/04 07:37:49;;;;;;;9.90;7.30;;;;;;;27.97;36.71;96812.02;107574;1267;39480;-83
2022/05/04 07:43:09;;;;;;;7.60;6.40;;;;;;;30.50;33.56;96814.84;107612;1267;32748;-83
2022/05/04 07:45:40;;;;;;;6.20;5.30;;;;;;;29.90;31.00;96814.26;107828;1267;35660;-82
2022/05/04 07:48:12;;;;;;;7.20;6.10;;;;;;;27.49;31.33;96812.55;107720;1267;36158;-82
2022/05/04 07:50:42;;;;;;;6.60;5.80;;;;;;;26.34;32.57;96816.36;107679;1267;34198;-82
2022/05/04 07:53:14;;;;;;;8.60;6.30;;;;;;;26.67;32.98;96813.67;107643;1267;42402;-82
2022/05/04 07:55:45;;;;;;;7.20;5.60;;;;;;;27.89;33.84;96810.81;107608;1270;37703;-83
2022/05/04 07:58:16;;;;;;;7.10;6.30;;;;;;;29.83;33.09;96812.98;107530;1270;34667;-83
2022/05/04 08:06:24;;;;;;;6.50;6.00;;;;;;;30.97;27.88;96825.85;107678;1267;34167;-82
2022/05/04 08:08:55;;;;;;;7.70;6.30;;;;;;;30.63;29.18;96822.09;107653;1267;47697;-82
2022/05/04 08:11:26;;;;;;;7.60;6.80;;;;;;;30.18;29.78;96816.96;107629;1267;36383;-82
2022/05/04 08:13:57;;;;;;;7.20;6.50;;;;;;;30.18;30.60;96815.38;107670;1267;34893;-82
2022/05/04 08:16:28;;;;;;;7.20;6.50;;;;;;;31.40;30.43;96814.20;107621;1267;47691;-82
2022/05/04 08:19:00;;;;;;;7.10;6.30;;;;;;;32.73;29.02;96812.00;107600;1267;51331;-83
2022/05/04 08:21:31;;;;;;;7.90;6.20;;;;;;;33.10;25.92;96814.71;107622;1266;30758;-82
2022/05/04 08:24:04;;;;;;;6.70;6.00;;;;;;;32.02;27.13;96817.04;107561;1267;34657;-83
2022/05/04 08:26:35;;;;;;;7.80;6.00;;;;;;;31.44;27.76;96818.55;107605;1267;32994;-82
2022/05/04 08:29:06;;;;;;;9.70;6.70;;;;;;;30.45;28.00;96818.00;107552;1267;49156;-83
2022/05/04 08:31:38;;;;;;;8.30;6.80;;;;;;;29.16;27.97;96818.64;107493;1270;62923;-82
2022/05/04 08:34:09;;;;;;;6.20;5.50;;;;;;;27.63;26.90;96825.93;107504;1268;38359;-82
2022/05/04 08:36:40;;;;;;;6.70;6.10;;;;;;;26.05;28.30;96824.20;107651;1267;34063;-82
2022/05/04 08:39:12;;;;;;;6.70;5.70;;;;;;;24.32;29.93;96826.92;107556;1267;39743;-82
2022/05/04 08:41:44;;;;;;;7.90;6.50;;;;;;;24.01;31.57;96825.92;107694;1267;34447;-83
2022/05/04 08:44:15;;;;;;;5.90;5.40;;;;;;;25.10;30.99;96822.84;107644;1268;43448;-82
2022/05/04 08:46:47;;;;;;;6.10;5.50;;;;;;;26.04;29.20;96825.39;107683;1267;40047;-78
2022/05/04 08:49:20;;;;;;;6.70;5.30;;;;;;;26.81;29.14;96818.42;107595;1267;40029;-82
2022/05/04 08:51:53;;;;;;;6.10;5.30;;;;;;;27.00;27.32;96825.09;107610;1267;33361;-82
2022/05/04 08:54:24;;;;;;;6.00;5.30;;;;;;;27.34;29.52;96822.93;107618;1267;39224;-82
2022/05/04 08:56:56;;;;;;;7.50;5.00;;;;;;;27.17;28.64;96822.83;107603;1267;42683;-82
2022/05/04 08:59:28;;;;;;;7.10;5.90;;;;;;;25.36;29.26;96823.39;107477;1270;79246;-82
2022/05/04 09:01:59;;;;;;;7.60;6.20;;;;;;;23.52;31.03;96823.48;107563;1270;63053;-82
2022/05/04 09:04:32;;;;;;;7.90;5.70;;;;;;;22.95;32.71;96819.06;107557;1267;75013;-82
2022/05/04 09:07:03;;;;;;;8.70;6.50;;;;;;;22.42;32.80;96825.85;107595;1267;43993;-82
2022/05/04 09:09:37;;;;;;;10.30;7.00;;;;;;;21.21;34.57;96827.38;107565;1267;99225;-82
2022/05/04 09:12:10;;;;;;;8.70;7.50;;;;;;;20.39;35.58;96826.40;107614;1267;39256;-82
2022/05/04 09:14:43;;;;;;;8.40;7.20;;;;;;;19.78;37.42;96825.92;107690;1265;44398;-82
2022/05/04 09:17:17;;;;;;;8.70;7.00;;;;;;;19.24;38.21;96829.03;107684;1267;57956;-82
2022/05/04 09:22:42;;;;;;;12.80;7.50;;;;;;;19.02;39.27;96826.98;107692;1267;31918;-83
2022/05/04 09:25:18;;;;;;;8.20;6.90;;;;;;;18.88;39.34;96829.86;107691;1267;47851;-81
2022/05/04 09:27:50;;;;;;;8.30;7.20;;;;;;;18.79;40.06;96830.39;107537;1267;72337;-82
2022/05/04 09:30:26;;;;;;;10.30;6.70;;;;;;;18.83;39.39;96829.57;107593;1267;42338;-81
2022/05/04 09:32:59;;;;;;;11.80;7.20;;;;;;;18.83;39.14;96832.00;107560;1267;115052;-82
2022/05/04 09:35:34;;;;;;;7.70;6.50;;;;;;;18.95;39.13;96836.25;107539;1267;43652;-82
2022/05/04 09:46:45;;;;;;;8.80;7.60;;;;;;;18.51;38.88;96844.64;107606;1267;59893;-82
2022/05/04 09:49:18;;;;;;;8.70;6.80;;;;;;;18.42;39.73;96838.63;107697;1267;43052;-82
2022/05/04 09:51:51;;;;;;;8.30;7.10;;;;;;;18.51;39.39;96836.30;107632;1267;39238;-81
2022/05/04 09:54:24;;;;;;;8.00;6.40;;;;;;;18.75;41.86;96832.05;107713;1267;40718;-82
2022/05/04 09:56:57;;;;;;;9.70;6.60;;;;;;;19.61;41.13;96829.67;107572;1267;62888;-82
2022/05/04 09:59:30;;;;;;;7.30;6.50;;;;;;;20.36;39.37;96826.45;107493;1268;73013;-82
2022/05/04 10:02:04;;;;;;;9.40;6.30;;;;;;;20.32;37.59;96824.79;107638;1267;50601;-82
2022/05/04 10:04:36;;;;;;;8.90;7.20;;;;;;;19.98;37.15;96827.77;107532;1270;94396;-82
2022/05/04 10:07:07;;;;;;;7.30;6.00;;;;;;;19.70;37.48;96821.32;107573;1268;96960;-82
2022/05/04 10:09:38;;;;;;;8.90;6.20;;;;;;;20.23;38.68;96818.55;107579;1269;67974;-82
2022/05/04 10:12:11;;;;;;;7.40;6.60;;;;;;;20.99;37.91;96816.73;107579;1268;45895;-83
2022/05/04 10:14:44;;;;;;;6.80;6.00;;;;;;;21.04;37.04;96818.25;107694;1268;59674;-82
2022/05/04 10:17:18;;;;;;;7.90;6.30;;;;;;;20.81;36.73;96813.58;107755;1268;33586;-82
2022/05/04 10:20:03;;;;;;;7.60;6.80;;;;;;;20.50;35.54;96813.86;107632;1268;42249;-81
2022/05/04 10:22:40;;;;;;;6.90;5.80;;;;;;;20.14;36.62;96812.48;107562;1270;86504;-82
2022/05/04 10:25:13;;;;;;;7.10;6.00;;;;;;;19.95;36.39;96813.20;107546;1270;31969;-82
2022/05/04 10:27:46;;;;;;;8.10;6.30;;;;;;;19.56;36.63;96816.53;107684;1269;32643;-82
2022/05/04 10:30:33;;;;;;;8.70;6.40;;;;;;;19.40;38.07;96814.56;107654;1269;43231;-81
2022/05/04 10:33:06;;;;;;;7.40;6.40;;;;;;;19.63;37.99;96809.48;107540;1270;40597;-82
2022/05/04 10:35:43;;;;;;;8.10;6.50;;;;;;;19.90;36.52;96808.57;107585;1270;40581;-82
2022/05/04 10:38:19;;;;;;;8.00;6.20;;;;;;;19.70;37.06;96812.20;107770;1268;32665;-82
2022/05/04 10:40:54;;;;;;;8.30;5.80;;;;;;;20.14;37.20;96808.67;107602;1268;34676;-82
2022/05/04 10:43:42;;;;;;;9.10;5.80;;;;;;;20.45;36.65;96805.84;107527;1268;73111;-82
2022/05/04 10:46:16;;;;;;;7.20;5.70;;;;;;;20.51;36.30;96804.10;107624;1268;41188;-82
2022/05/04 10:48:52;;;;;;;6.70;5.90;;;;;;;20.72;36.88;96804.60;107633;1268;35714;-78
2022/05/04 10:51:24;;;;;;;7.80;5.90;;;;;;;20.87;36.22;96800.91;107521;1270;37205;-82
2022/05/04 10:54:01;;;;;;;8.00;6.30;;;;;;;20.48;35.83;96799.44;107496;1270;62730;-82
2022/05/04 10:56:38;;;;;;;8.30;5.90;;;;;;;20.06;36.84;96798.87;107641;1268;30961;-82
2022/05/04 10:59:09;;;;;;;6.80;5.90;;;;;;;20.04;37.53;96795.50;107572;1271;48515;-82
2022/05/04 11:01:42;;;;;;;8.00;5.80;;;;;;;20.14;37.72;96795.52;107565;1269;33749;-82
2022/05/04 11:04:22;;;;;;;7.50;5.70;;;;;;;20.47;38.37;96795.88;107617;1270;41616;-82
2022/05/04 11:07:07;;;;;;;7.80;5.90;;;;;;;21.07;38.07;96795.77;107650;1270;45797;-81
2022/05/04 11:09:42;;;;;;;8.30;5.80;;;;;;;21.22;36.69;96795.23;107546;1268;41230;-82
2022/05/04 11:12:14;;;;;;;8.30;6.10;;;;;;;21.27;37.11;96793.98;107661;1268;31893;-82
2022/05/04 11:14:45;;;;;;;6.60;5.70;;;;;;;21.37;36.00;96795.48;107515;1270;204433;-82
2022/05/04 11:17:17;;;;;;;6.60;5.80;;;;;;;21.09;35.13;96795.45;107755;1270;30362;-82
2022/05/04 11:19:48;;;;;;;8.60;5.60;;;;;;;20.80;34.54;96789.75;107589;1271;43310;-81
2022/05/04 11:22:20;;;;;;;7.40;5.80;;;;;;;20.46;35.61;96789.12;107560;1271;41939;-81
2022/05/04 11:24:52;;;;;;;6.60;5.70;;;;;;;20.54;35.10;96785.91;107582;1268;42123;-81
2022/05/04 11:27:24;;;;;;;7.80;6.00;;;;;;;20.42;35.57;96786.98;107581;1268;41630;-82
2022/05/04 11:29:57;;;;;;;10.30;6.60;;;;;;;20.10;36.28;96782.25;107595;1271;32573;-81
2022/05/04 11:32:32;;;;;;;7.50;6.10;;;;;;;20.16;36.48;96780.73;107545;1271;46997;-82
2022/05/04 11:35:04;;;;;;;7.20;6.30;;;;;;;20.07;35.46;96781.46;107571;1268;34808;-82
2022/05/04 11:37:39;;;;;;;8.70;6.20;;;;;;;19.93;35.13;96782.43;107508;1270;56459;-82
2022/05/04 11:40:16;;;;;;;6.10;5.50;;;;;;;20.22;36.91;96780.77;107462;1270;47242;-82
2022/05/04 11:42:48;;;;;;;8.40;5.50;;;;;;;20.73;37.41;96782.31;107570;1271;42263;-79
2022/05/04 11:45:20;;;;;;;7.10;5.70;;;;;;;21.02;37.62;96781.33;107561;1268;44447;-81
2022/05/04 11:47:52;;;;;;;6.40;5.70;;;;;;;21.13;37.50;96785.02;107547;1268;44177;-82
2022/05/04 11:50:23;;;;;;;7.40;5.50;;;;;;;21.07;37.14;96781.85;107481;1268;92362;-82
2022/05/04 11:52:54;;;;;;;6.80;6.00;;;;;;;20.98;36.35;96777.34;107573;1268;43006;-82
2022/05/04 11:55:25;;;;;;;8.30;6.00;;;;;;;20.41;36.26;96775.48;107617;1268;40020;-81
2022/05/04 11:58:00;;;;;;;6.40;5.70;;;;;;;19.73;36.52;96775.02;107562;1268;35825;-82
2022/05/04 12:00:31;;;;;;;6.80;5.90;;;;;;;19.55;37.58;96771.07;107572;1268;40429;-81
2022/05/04 12:03:02;;;;;;;8.30;5.60;;;;;;;19.51;38.29;96767.46;107590;1271;41074;-81
2022/05/04 12:05:34;;;;;;;5.80;5.20;;;;;;;19.53;38.55;96765.92;107552;1271;33315;-82
2022/05/04 12:08:07;;;;;;;10.00;6.40;;;;;;;19.53;38.46;96765.01;107572;1268;43411;-82
2022/05/04 12:10:38;;;;;;;8.30;5.90;;;;;;;19.49;38.40;96766.34;107560;1271;49797;-82
2022/05/04 12:13:09;;;;;;;8.40;5.30;;;;;;;19.69;38.51;96767.95;107590;1268;36734;-81
2022/05/04 12:15:40;;;;;;;6.40;5.60;;;;;;;20.02;38.53;96759.59;107556;1271;32640;-82